Latest Coastal Weather Observations for Cape Ferguson

IDQ60701

Issued at 3:02 pm EST Tuesday 19 June 2018 (issued every 10 minutes, with the page automatically refreshed every 10 minutes)

About coastal observations | Map of coastal stations | Coastal observations for QLD | Marine services | Other Formats
Station Details ID: 032182 Name: CAPE FERGUSON NTC AWS Lat: -19.28 Lon: 147.06 Height: 0.0 m
Data from the previous 72 hours. | See also: Recent months for locations in Queensland
Date/Time
EST
Temp
°C
Wind Pressure Rain since
9am
mm
Weather Cloud Vis
km
Sea
Height
m
Swell
Dir  Spd
kts
Gust
kts
hPa Trend Height
m
Period
s
Dir
19/03:00pm 19.3 ENE 7 9 1019.1 - - - - - - - - -
19/02:30pm 19.0 ENE 9 12 1019.3 - - - - - - - - -
19/02:00pm 18.9 E 9 11 1019.7 - - - - - - - - -
19/01:30pm 19.6 SE 10 12 1020.0 - - - - - - - - -
19/01:00pm 19.1 SE 8 10 1020.4 - - - - - - - - -
19/12:30pm 18.7 SE 8 11 1021.0 - - - - - - - - -
19/12:00pm 18.3 SE 8 11 1021.6 - - - - - - - - -
19/11:30am 18.0 SSE 9 11 1021.9 - - - - - - - - -
19/11:00am 17.7 SSE 10 14 1022.4 - - - - - - - - -
19/10:30am 17.5 SSE 11 14 1022.8 - - - - - - - - -
19/10:00am 17.2 SSE 12 15 1022.7 - - - - - - - - -
19/09:30am 17.2 SSE 15 19 1022.7 - - - - - - - - -
19/09:00am 17.2 SSE 13 17 1022.8 - - - - - - - - -
19/08:30am 16.9 S 13 16 1022.7 - - - - - - - - -
19/08:00am 16.9 S 11 14 1022.5 - - - - - - - - -
19/07:30am 16.0 SW 6 13 1022.1 - - - - - - - - -
19/07:00am 16.9 S 13 16 1021.8 - - - - - - - - -
19/06:30am 17.3 S 13 17 1021.4 - - - - - - - - -
19/06:00am 17.6 S 13 15 1021.2 - - - - - - - - -
19/05:30am 16.5 SW 4 12 1020.8 - - - - - - - - -
19/05:00am 15.9 WSW 5 10 1020.7 - - - - - - - - -
19/04:30am 16.8 S 13 17 1020.6 - - - - - - - - -
19/04:00am 17.3 S 12 15 1020.6 - - - - - - - - -
19/03:30am 17.4 S 13 17 1020.7 - - - - - - - - -
19/03:00am 18.0 S 12 17 1020.8 - - - - - - - - -
19/02:30am 17.9 S 11 14 1020.8 - - - - - - - - -
19/02:00am 18.1 S 12 15 1020.9 - - - - - - - - -
19/01:30am 18.4 S 12 15 1021.0 - - - - - - - - -
19/01:00am 18.8 S 12 14 1021.1 - - - - - - - - -
19/12:30am 19.0 SSE 12 15 1021.0 - - - - - - - - -
19/12:00am 19.3 S 13 17 1021.0 - - - - - - - - -
 
Date/Time
EST
Temp
°C
Wind Pressure Rain since
9am
mm
Weather Cloud Vis
km
Sea
Height
m
Swell
Dir  Spd
kts
Gust
kts
hPa Trend Height
m
Period
s
Dir
18/11:30pm 19.4 S 13 16 1021.0 - - - - - - - - -
18/11:00pm 19.9 S 11 16 1020.9 - - - - - - - - -
18/10:30pm 20.2 SSW 10 14 1021.0 - - - - - - - - -
18/10:00pm 19.5 SW 5 8 1021.0 - - - - - - - - -
18/09:30pm 18.4 SW 4 6 1020.8 - - - - - - - - -
18/09:00pm 20.7 S 9 12 1020.4 - - - - - - - - -
18/08:30pm 20.4 S 10 14 1020.1 - - - - - - - - -
18/08:00pm 20.8 S 11 15 1019.7 - - - - - - - - -
18/07:30pm 21.6 SSE 14 19 1019.4 - - - - - - - - -
18/07:00pm 21.8 SSE 12 15 1019.1 - - - - - - - - -
18/06:30pm 22.2 SSE 12 15 1018.6 - - - - - - - - -
18/06:00pm 22.8 SSE 10 12 1018.2 - - - - - - - - -
18/05:30pm 23.2 SSE 10 12 1017.9 - - - - - - - - -
18/05:00pm 23.5 SSE 12 14 1017.6 - - - - - - - - -
18/04:30pm 23.6 SSE 12 14 1017.4 - - - - - - - - -
18/04:00pm 23.5 SSE 11 13 1017.2 - - - - - - - - -
18/03:30pm 23.6 SSE 7 9 1017.0 - - - - - - - - -
18/03:00pm 23.2 SE 7 9 1017.1 - - - - - - - - -
18/02:30pm 22.9 SSE 6 9 1017.3 - - - - - - - - -
18/02:00pm 22.6 SSE 8 10 1017.7 - - - - - - - - -
18/01:30pm 22.0 SE 10 13 1018.1 - - - - - - - - -
18/01:00pm 21.4 SE 11 13 1018.6 - - - - - - - - -
18/12:30pm 21.1 SE 11 13 1019.2 - - - - - - - - -
18/12:00pm 20.6 SE 10 12 1020.0 - - - - - - - - -
18/11:30am 20.1 SSE 11 15 1020.3 - - - - - - - - -
18/11:00am 19.7 SSE 13 16 1020.8 - - - - - - - - -
18/10:30am 19.4 SSE 13 17 1021.0 - - - - - - - - -
18/10:00am 19.3 S 12 17 1020.8 - - - - - - - - -
18/09:30am 19.1 S 14 17 1020.9 - - - - - - - - -
18/09:00am 18.3 S 13 17 1021.0 - - - - - - - - -
18/08:30am 18.2 S 12 18 1020.7 - - - - - - - - -
18/08:00am 18.3 S 16 21 1020.5 - - - - - - - - -
18/07:30am 19.1 S 12 15 1020.2 - - - - - - - - -
18/07:00am 19.2 S 12 18 1020.0 - - - - - - - - -
18/06:30am 19.3 S 14 18 1019.7 - - - - - - - - -
18/06:00am 19.3 SSW 7 10 1019.3 - - - - - - - - -
18/05:30am 19.2 SW 6 12 1019.1 - - - - - - - - -
18/05:00am 19.3 SSW 7 10 1018.8 - - - - - - - - -
18/04:30am 19.5 SSW 8 11 1019.0 - - - - - - - - -
18/04:00am 19.8 SSW 7 9 1019.0 - - - - - - - - -
18/03:30am 19.9 SW 6 9 1019.0 - - - - - - - - -
18/03:00am 20.3 SW 5 10 1019.1 - - - - - - - - -
18/02:30am 20.4 SW 5 8 1019.1 - - - - - - - - -
18/02:00am 20.3 SW 7 9 1019.4 - - - - - - - - -
18/01:30am 19.9 W 7 10 1019.7 - - - - - - - - -
18/01:00am 20.5 SW 5 7 1019.6 - - - - - - - - -
18/12:30am 21.0 SSW 5 8 1019.9 - - - - - - - - -
18/12:00am 21.3 SW 4 6 1020.1 - - - - - - - - -
 
Date/Time
EST
Temp
°C
Wind Pressure Rain since
9am
mm
Weather Cloud Vis
km
Sea
Height
m
Swell
Dir  Spd
kts
Gust
kts
hPa Trend Height
m
Period
s
Dir
17/11:30pm 21.0 WSW 3 5 1020.4 - - - - - - - - -
17/11:00pm 21.1 W 4 6 1020.5 - - - - - - - - -
17/10:30pm 20.7 WNW 4 5 1020.6 - - - - - - - - -
17/10:00pm 19.9 WNW 3 6 1020.5 - - - - - - - - -
17/09:30pm 19.3 NW 3 4 1020.1 - - - - - - - - -
17/09:00pm 19.7 W 3 4 1020.2 - - - - - - - - -
17/08:30pm 19.3 WSW 3 4 1020.0 - - - - - - - - -
17/08:00pm 20.5 W 3 5 1019.8 - - - - - - - - -
17/07:30pm 20.4 WNW 3 4 1019.5 - - - - - - - - -
17/07:00pm 19.6 WNW 3 5 1019.3 - - - - - - - - -
17/06:30pm 21.0 WNW 3 4 1019.2 - - - - - - - - -
17/06:00pm 20.8 W 5 7 1018.8 - - - - - - - - -
17/05:30pm 23.1 S 11 13 1018.5 - - - - - - - - -
17/05:00pm 23.1 SSE 11 14 1018.4 - - - - - - - - -
17/04:30pm 23.1 SSE 9 13 1018.1 - - - - - - - - -
17/04:00pm 23.1 SSE 12 14 1017.7 - - - - - - - - -
17/03:30pm 23.0 SSE 12 14 1017.8 - - - - - - - - -
17/03:00pm 22.8 SSE 12 16 1017.7 - - - - - - - - -
17/02:30pm 22.7 SSE 13 15 1017.5 - - - - - - - - -
17/02:00pm 22.6 SSE 13 17 1017.5 - - - - - - - - -
17/01:30pm 22.7 SSE 13 16 1017.9 - - - - - - - - -
17/01:00pm 22.5 S 15 17 1018.2 - - - - - - - - -
17/12:30pm 22.2 SSE 15 21 1019.0 - - - - - - - - -
17/12:00pm 22.0 SSE 16 21 1019.4 - - - - - - - - -
17/11:30am 21.9 S 13 18 1019.7 - - - - - - - - -
17/11:00am 21.9 S 17 22 1019.8 - - - - - - - - -
17/10:30am 22.3 S 14 18 1019.8 - - - - - - - - -
17/10:00am 21.2 SW 8 11 1020.0 - - - - - - - - -
17/09:30am 21.0 SW 7 11 1020.2 - - - - - - - - -
17/09:00am 21.1 SW 6 9 1020.3 - - - - - - - - -
17/08:30am 20.9 SW 5 10 1020.2 - - - - - - - - -
17/08:00am 20.0 WSW 5 11 1019.9 - - - - - - - - -
17/07:30am 19.5 W 2 4 1019.6 - - - - - - - - -
17/07:00am 18.9 W 3 4 1019.2 - - - - - - - - -
17/06:30am 18.0 WNW 4 6 1019.1 - - - - - - - - -
17/06:00am 20.7 WSW 4 7 1018.8 - - - - - - - - -
17/05:30am 20.4 W 4 5 1018.7 - - - - - - - - -
17/05:00am 20.3 W 5 6 1018.9 - - - - - - - - -
17/04:30am 20.7 W 3 4 1018.8 - - - - - - - - -
17/04:00am 20.4 WSW 3 6 1018.8 - - - - - - - - -
17/03:30am 20.7 ESE 3 5 1018.8 - - - - - - - - -
17/03:00am 20.6 NW 1 3 1018.9 - - - - - - - - -
17/02:30am 19.6 W 4 7 1018.9 - - - - - - - - -
17/02:00am 20.7 W 1 4 1019.0 - - - - - - - - -
17/01:30am 20.8 WNW 3 4 1019.1 - - - - - - - - -
17/01:00am 20.7 WNW 3 4 1019.0 - - - - - - - - -
17/12:30am 20.3 WNW 5 7 1019.3 - - - - - - - - -
17/12:00am 20.6 WSW 5 6 1019.3 - - - - - - - - -
 
Date/Time
EST
Temp
°C
Wind Pressure Rain since
9am
mm
Weather Cloud Vis
km
Sea
Height
m
Swell
Dir  Spd
kts
Gust
kts
hPa Trend Height
m
Period
s
Dir
16/11:30pm 20.3 W 5 6 1019.7 - - - - - - - - -
16/11:00pm 20.7 WNW 2 3 1020.0 - - - - - - - - -
16/10:30pm 21.1 WNW 2 4 1020.1 - - - - - - - - -
16/10:00pm 21.1 NW 2 3 1020.1 - - - - - - - - -
16/09:30pm 20.4 WNW 3 4 1020.2 - - - - - - - - -
16/09:00pm 20.8 W 2 3 1019.8 - - - - - - - - -
16/08:30pm 21.6 CALM 0 2 1019.8 - - - - - - - - -
16/08:00pm 22.5 E 3 4 1019.8 - - - - - - - - -
16/07:30pm 22.6 E 3 4 1019.6 - - - - - - - - -
16/07:00pm 22.7 ESE 3 4 1019.3 - - - - - - - - -
16/06:30pm 22.8 ESE 2 4 1019.2 - - - - - - - - -
16/06:00pm 22.7 ENE 3 5 1018.9 - - - - - - - - -
16/05:30pm 22.9 ENE 4 5 1018.7 - - - - - - - - -
16/05:00pm 22.9 ENE 5 6 1018.4 - - - - - - - - -
16/04:30pm 22.8 E 4 5 1018.1 - - - - - - - - -
16/04:00pm 22.9 ENE 5 6 1018.3 - - - - - - - - -
16/03:30pm 23.0 ENE 5 6 1018.1 - - - - - - - - -

Other Formats:

Comma delimited format used in spreadsheet applications
http://www.bom.gov.au/fwo/IDQ60701/IDQ60701.94297.axf

JavaScript Object Notation format (JSON) in row-major order
http://www.bom.gov.au/fwo/IDQ60701/IDQ60701.94297.json